HTKJ

Kilimanjaro International Airport

Arusha, Tanzania
METAR HTKJ 200500Z 00000KT 9999 FEW024 21/18 Q1016 NOSIG
Observed Flight Rules
Feb-20 @ 05:00 UTC (2 hours ago) Visual Flight Rules
Wind Visibility Clouds
Calm 10,000+ meters
  • Few at 2,400' AGL
Temperatures Readings
Current 21°C / 70°F
Dewpoint 18°C / 64°F
Humidity 83%
Altimeter 30" Hg
Pressure 1016 hPa
Elevation 896
METAR HTKJ 200500Z 00000KT 9999 FEW024 21/18 Q1016 NOSIG
Observed Flight Rules
Feb-20 @ 05:00 UTC
(2 hours ago)
VFR
Wind Visibility
Calm 10,000+ meters
Clouds
  • Few at 2,400' AGL
Temperature Dewpoint
21°C / 70°F 18°C / 64°F
Humidity Altimeter Pressure
83% 30" Hg 1016 hPa